sensor_id;sensor_type;location;lat;lon;timestamp;temperature;humidity
13892;DHT22;7016;48.172;8.058;2023-08-06T00:00:16;17.40;99.90
13892;DHT22;7016;48.172;8.058;2023-08-06T00:02:42;17.60;99.90
13892;DHT22;7016;48.172;8.058;2023-08-06T00:05:08;17.50;99.90
13892;DHT22;7016;48.172;8.058;2023-08-06T00:07:33;17.50;99.90
13892;DHT22;7016;48.172;8.058;2023-08-06T00:09:59;17.50;99.90
13892;DHT22;7016;48.172;8.058;2023-08-06T00:12:25;17.40;99.90
13892;DHT22;7016;48.172;8.058;2023-08-06T00:14:51;17.40;99.90
13892;DHT22;7016;48.172;8.058;2023-08-06T00:17:17;17.40;99.90
13892;DHT22;7016;48.172;8.058;2023-08-06T00:19:43;17.40;99.90
13892;DHT22;7016;48.172;8.058;2023-08-06T00:22:08;17.30;99.90
13892;DHT22;7016;48.172;8.058;2023-08-06T00:24:34;17.30;99.90
13892;DHT22;7016;48.172;8.058;2023-08-06T00:27:01;17.20;99.90
13892;DHT22;7016;48.172;8.058;2023-08-06T00:29:26;17.00;99.90
13892;DHT22;7016;48.172;8.058;2023-08-06T00:31:52;17.00;99.90
13892;DHT22;7016;48.172;8.058;2023-08-06T00:34:18;17.00;99.90
13892;DHT22;7016;48.172;8.058;2023-08-06T00:36:43;17.10;99.90
13892;DHT22;7016;48.172;8.058;2023-08-06T00:39:09;17.10;99.90
13892;DHT22;7016;48.172;8.058;2023-08-06T00:41:35;17.10;99.90
13892;DHT22;7016;48.172;8.058;2023-08-06T00:46:27;17.10;99.90
13892;DHT22;7016;48.172;8.058;2023-08-06T00:48:53;17.10;99.90
13892;DHT22;7016;48.172;8.058;2023-08-06T00:51:19;17.10;99.90
13892;DHT22;7016;48.172;8.058;2023-08-06T00:53:46;17.20;99.90
13892;DHT22;7016;48.172;8.058;2023-08-06T00:56:12;17.20;99.90
13892;DHT22;7016;48.172;8.058;2023-08-06T00:58:39;17.20;99.90
13892;DHT22;7016;48.172;8.058;2023-08-06T01:01:05;17.20;99.90
13892;DHT22;7016;48.172;8.058;2023-08-06T01:03:30;17.20;99.90
13892;DHT22;7016;48.172;8.058;2023-08-06T01:05:56;17.20;99.90
13892;DHT22;7016;48.172;8.058;2023-08-06T01:08:55;17.10;99.90
13892;DHT22;7016;48.172;8.058;2023-08-06T01:14:41;17.10;99.90
13892;DHT22;7016;48.172;8.058;2023-08-06T01:17:10;17.20;99.90
13892;DHT22;7016;48.172;8.058;2023-08-06T01:19:36;17.10;99.90
13892;DHT22;7016;48.172;8.058;2023-08-06T01:22:02;17.00;99.90
13892;DHT22;7016;48.172;8.058;2023-08-06T01:24:27;17.00;99.90
13892;DHT22;7016;48.172;8.058;2023-08-06T01:27:08;17.10;99.90
13892;DHT22;7016;48.172;8.058;2023-08-06T01:29:46;17.20;99.90
13892;DHT22;7016;48.172;8.058;2023-08-06T01:32:14;17.10;99.90
13892;DHT22;7016;48.172;8.058;2023-08-06T01:34:43;17.20;99.90
13892;DHT22;7016;48.172;8.058;2023-08-06T01:37:11;17.20;99.90
13892;DHT22;7016;48.172;8.058;2023-08-06T01:39:37;17.20;99.90
13892;DHT22;7016;48.172;8.058;2023-08-06T01:42:06;17.10;99.90
13892;DHT22;7016;48.172;8.058;2023-08-06T01:44:32;17.20;99.90
13892;DHT22;7016;48.172;8.058;2023-08-06T01:46:58;17.20;99.90
13892;DHT22;7016;48.172;8.058;2023-08-06T01:49:24;17.20;99.90
13892;DHT22;7016;48.172;8.058;2023-08-06T01:51:50;17.20;99.90
13892;DHT22;7016;48.172;8.058;2023-08-06T01:54:15;17.20;99.90
13892;DHT22;7016;48.172;8.058;2023-08-06T01:56:41;17.10;99.90
13892;DHT22;7016;48.172;8.058;2023-08-06T01:59:07;16.90;99.90
13892;DHT22;7016;48.172;8.058;2023-08-06T02:01:32;16.80;99.90
13892;DHT22;7016;48.172;8.058;2023-08-06T02:03:58;16.70;99.90
13892;DHT22;7016;48.172;8.058;2023-08-06T02:06:24;16.70;99.90
13892;DHT22;7016;48.172;8.058;2023-08-06T02:08:50;16.80;99.90
13892;DHT22;7016;48.172;8.058;2023-08-06T02:11:15;16.60;99.90
13892;DHT22;7016;48.172;8.058;2023-08-06T02:13:41;16.60;99.90
13892;DHT22;7016;48.172;8.058;2023-08-06T02:16:07;16.50;99.90
13892;DHT22;7016;48.172;8.058;2023-08-06T02:18:34;16.50;99.90
13892;DHT22;7016;48.172;8.058;2023-08-06T02:21:00;16.50;99.90
13892;DHT22;7016;48.172;8.058;2023-08-06T02:23:26;16.50;99.90
13892;DHT22;7016;48.172;8.058;2023-08-06T02:26:02;16.40;99.90
13892;DHT22;7016;48.172;8.058;2023-08-06T02:28:32;16.40;99.90
13892;DHT22;7016;48.172;8.058;2023-08-06T02:30:57;16.10;99.90
13892;DHT22;7016;48.172;8.058;2023-08-06T02:33:23;16.10;99.90
13892;DHT22;7016;48.172;8.058;2023-08-06T02:35:49;16.00;99.90
13892;DHT22;7016;48.172;8.058;2023-08-06T02:38:15;16.10;99.90
13892;DHT22;7016;48.172;8.058;2023-08-06T02:40:47;16.10;99.90
13892;DHT22;7016;48.172;8.058;2023-08-06T02:43:13;16.10;99.90
13892;DHT22;7016;48.172;8.058;2023-08-06T02:45:39;16.00;99.90
13892;DHT22;7016;48.172;8.058;2023-08-06T02:48:05;16.00;99.90
13892;DHT22;7016;48.172;8.058;2023-08-06T02:50:31;16.00;99.90
13892;DHT22;7016;48.172;8.058;2023-08-06T02:53:02;15.70;99.90
13892;DHT22;7016;48.172;8.058;2023-08-06T02:55:28;15.80;99.90
13892;DHT22;7016;48.172;8.058;2023-08-06T02:57:54;15.80;99.90
13892;DHT22;7016;48.172;8.058;2023-08-06T03:00:19;15.70;99.90
13892;DHT22;7016;48.172;8.058;2023-08-06T03:02:45;15.80;99.90
13892;DHT22;7016;48.172;8.058;2023-08-06T03:05:10;15.80;99.90
13892;DHT22;7016;48.172;8.058;2023-08-06T03:07:36;15.70;99.90
13892;DHT22;7016;48.172;8.058;2023-08-06T03:10:03;15.40;99.90
13892;DHT22;7016;48.172;8.058;2023-08-06T03:12:29;15.40;99.90
13892;DHT22;7016;48.172;8.058;2023-08-06T03:14:54;15.40;99.90
13892;DHT22;7016;48.172;8.058;2023-08-06T03:17:20;15.50;99.90
13892;DHT22;7016;48.172;8.058;2023-08-06T03:19:46;15.50;99.90
13892;DHT22;7016;48.172;8.058;2023-08-06T03:22:11;15.60;99.90
13892;DHT22;7016;48.172;8.058;2023-08-06T03:24:37;15.60;99.90
13892;DHT22;7016;48.172;8.058;2023-08-06T03:27:03;15.60;99.90
13892;DHT22;7016;48.172;8.058;2023-08-06T03:29:28;15.60;99.90
13892;DHT22;7016;48.172;8.058;2023-08-06T03:31:54;15.50;99.90
13892;DHT22;7016;48.172;8.058;2023-08-06T03:34:20;15.50;99.90
13892;DHT22;7016;48.172;8.058;2023-08-06T03:36:45;15.50;99.90
13892;DHT22;7016;48.172;8.058;2023-08-06T03:39:11;15.50;99.90
13892;DHT22;7016;48.172;8.058;2023-08-06T03:41:37;15.50;99.90
13892;DHT22;7016;48.172;8.058;2023-08-06T03:44:03;15.60;99.90
13892;DHT22;7016;48.172;8.058;2023-08-06T03:46:29;15.60;99.90
13892;DHT22;7016;48.172;8.058;2023-08-06T03:48:57;15.50;99.90
13892;DHT22;7016;48.172;8.058;2023-08-06T03:51:23;15.50;99.90
13892;DHT22;7016;48.172;8.058;2023-08-06T03:53:49;15.40;99.90
13892;DHT22;7016;48.172;8.058;2023-08-06T03:56:14;15.30;99.90
13892;DHT22;7016;48.172;8.058;2023-08-06T03:58:40;15.30;99.90
13892;DHT22;7016;48.172;8.058;2023-08-06T04:01:06;15.20;99.90
13892;DHT22;7016;48.172;8.058;2023-08-06T04:03:31;15.20;99.90
13892;DHT22;7016;48.172;8.058;2023-08-06T04:05:57;15.20;99.90
13892;DHT22;7016;48.172;8.058;2023-08-06T04:08:23;15.20;99.90
13892;DHT22;7016;48.172;8.058;2023-08-06T04:13:19;15.20;99.90
13892;DHT22;7016;48.172;8.058;2023-08-06T04:15:45;15.30;99.90
13892;DHT22;7016;48.172;8.058;2023-08-06T04:18:11;15.40;99.90
13892;DHT22;7016;48.172;8.058;2023-08-06T04:20:44;15.30;99.90
13892;DHT22;7016;48.172;8.058;2023-08-06T04:23:10;15.30;99.90
13892;DHT22;7016;48.172;8.058;2023-08-06T04:25:36;15.50;99.90
13892;DHT22;7016;48.172;8.058;2023-08-06T04:28:02;15.50;99.90
13892;DHT22;7016;48.172;8.058;2023-08-06T04:30:27;15.20;99.90
13892;DHT22;7016;48.172;8.058;2023-08-06T04:32:53;15.20;99.90
13892;DHT22;7016;48.172;8.058;2023-08-06T04:35:19;15.10;99.90
13892;DHT22;7016;48.172;8.058;2023-08-06T04:37:44;15.00;99.90
13892;DHT22;7016;48.172;8.058;2023-08-06T04:40:10;14.90;99.90
13892;DHT22;7016;48.172;8.058;2023-08-06T04:42:36;14.90;99.90
13892;DHT22;7016;48.172;8.058;2023-08-06T04:45:02;15.00;99.90
13892;DHT22;7016;48.172;8.058;2023-08-06T04:47:28;14.70;99.90
13892;DHT22;7016;48.172;8.058;2023-08-06T04:49:54;14.70;99.90
13892;DHT22;7016;48.172;8.058;2023-08-06T04:52:19;14.50;99.90
13892;DHT22;7016;48.172;8.058;2023-08-06T04:54:45;14.50;99.90
13892;DHT22;7016;48.172;8.058;2023-08-06T04:57:11;14.50;99.90
13892;DHT22;7016;48.172;8.058;2023-08-06T04:59:36;14.60;99.90
13892;DHT22;7016;48.172;8.058;2023-08-06T05:02:02;14.40;99.90
13892;DHT22;7016;48.172;8.058;2023-08-06T05:04:28;14.40;99.90
13892;DHT22;7016;48.172;8.058;2023-08-06T05:06:54;14.50;99.90
13892;DHT22;7016;48.172;8.058;2023-08-06T05:09:19;14.50;99.90
13892;DHT22;7016;48.172;8.058;2023-08-06T05:11:46;14.30;99.90
13892;DHT22;7016;48.172;8.058;2023-08-06T05:14:12;14.30;99.90
13892;DHT22;7016;48.172;8.058;2023-08-06T05:16:39;14.20;99.90
13892;DHT22;7016;48.172;8.058;2023-08-06T05:19:04;14.20;99.90
13892;DHT22;7016;48.172;8.058;2023-08-06T05:21:30;14.30;99.90
13892;DHT22;7016;48.172;8.058;2023-08-06T05:23:56;14.30;99.90
13892;DHT22;7016;48.172;8.058;2023-08-06T05:26:21;14.30;99.90
13892;DHT22;7016;48.172;8.058;2023-08-06T05:28:47;14.30;99.90
13892;DHT22;7016;48.172;8.058;2023-08-06T05:31:13;14.30;99.90
13892;DHT22;7016;48.172;8.058;2023-08-06T05:33:39;14.30;99.90
13892;DHT22;7016;48.172;8.058;2023-08-06T05:36:04;14.20;99.90
13892;DHT22;7016;48.172;8.058;2023-08-06T05:38:30;14.20;99.90
13892;DHT22;7016;48.172;8.058;2023-08-06T05:40:56;14.10;99.90
13892;DHT22;7016;48.172;8.058;2023-08-06T05:43:22;14.10;99.90
13892;DHT22;7016;48.172;8.058;2023-08-06T05:45:51;14.10;99.90
13892;DHT22;7016;48.172;8.058;2023-08-06T05:48:17;13.90;99.90
13892;DHT22;7016;48.172;8.058;2023-08-06T05:50:43;13.90;99.90
13892;DHT22;7016;48.172;8.058;2023-08-06T05:53:08;14.00;99.90
13892;DHT22;7016;48.172;8.058;2023-08-06T05:55:34;14.00;99.90
13892;DHT22;7016;48.172;8.058;2023-08-06T05:58:01;14.00;99.90
13892;DHT22;7016;48.172;8.058;2023-08-06T06:00:26;13.90;99.90
13892;DHT22;7016;48.172;8.058;2023-08-06T06:02:52;13.80;99.90
13892;DHT22;7016;48.172;8.058;2023-08-06T06:05:18;14.00;99.90
13892;DHT22;7016;48.172;8.058;2023-08-06T06:07:43;14.20;99.90
13892;DHT22;7016;48.172;8.058;2023-08-06T06:10:09;14.00;99.90
13892;DHT22;7016;48.172;8.058;2023-08-06T06:12:35;14.20;99.90
13892;DHT22;7016;48.172;8.058;2023-08-06T06:15:01;14.20;99.90
13892;DHT22;7016;48.172;8.058;2023-08-06T06:17:27;14.20;99.90
13892;DHT22;7016;48.172;8.058;2023-08-06T06:19:53;14.00;99.90
13892;DHT22;7016;48.172;8.058;2023-08-06T06:22:18;13.80;99.90
13892;DHT22;7016;48.172;8.058;2023-08-06T06:24:44;13.70;99.90
13892;DHT22;7016;48.172;8.058;2023-08-06T06:27:10;13.50;99.90
13892;DHT22;7016;48.172;8.058;2023-08-06T06:29:35;13.50;99.90
13892;DHT22;7016;48.172;8.058;2023-08-06T06:32:01;13.50;99.90
13892;DHT22;7016;48.172;8.058;2023-08-06T06:34:27;13.60;99.90
13892;DHT22;7016;48.172;8.058;2023-08-06T06:36:56;13.50;99.90
13892;DHT22;7016;48.172;8.058;2023-08-06T06:39:21;13.50;99.90
13892;DHT22;7016;48.172;8.058;2023-08-06T06:41:47;13.50;99.90
13892;DHT22;7016;48.172;8.058;2023-08-06T06:44:14;13.50;99.90
13892;DHT22;7016;48.172;8.058;2023-08-06T06:46:40;13.60;99.90
13892;DHT22;7016;48.172;8.058;2023-08-06T06:49:06;13.70;99.90
13892;DHT22;7016;48.172;8.058;2023-08-06T06:51:32;13.60;99.90
13892;DHT22;7016;48.172;8.058;2023-08-06T06:53:58;13.70;99.90
13892;DHT22;7016;48.172;8.058;2023-08-06T06:56:24;13.60;99.90
13892;DHT22;7016;48.172;8.058;2023-08-06T06:58:50;13.60;99.90
13892;DHT22;7016;48.172;8.058;2023-08-06T07:01:17;13.80;99.90
13892;DHT22;7016;48.172;8.058;2023-08-06T07:03:43;13.80;99.90
13892;DHT22;7016;48.172;8.058;2023-08-06T07:06:09;13.80;99.90
13892;DHT22;7016;48.172;8.058;2023-08-06T07:08:34;13.70;99.90
13892;DHT22;7016;48.172;8.058;2023-08-06T07:11:06;13.50;99.90
13892;DHT22;7016;48.172;8.058;2023-08-06T07:13:33;13.50;99.90
13892;DHT22;7016;48.172;8.058;2023-08-06T07:15:59;13.70;99.90
13892;DHT22;7016;48.172;8.058;2023-08-06T07:18:25;13.50;99.90
13892;DHT22;7016;48.172;8.058;2023-08-06T07:20:51;13.60;99.90
13892;DHT22;7016;48.172;8.058;2023-08-06T07:23:20;13.50;99.90
13892;DHT22;7016;48.172;8.058;2023-08-06T07:25:47;13.50;99.90
13892;DHT22;7016;48.172;8.058;2023-08-06T07:28:13;13.60;99.90
13892;DHT22;7016;48.172;8.058;2023-08-06T07:30:40;13.60;99.90
13892;DHT22;7016;48.172;8.058;2023-08-06T07:33:06;13.50;99.90
13892;DHT22;7016;48.172;8.058;2023-08-06T07:35:33;13.60;99.90
13892;DHT22;7016;48.172;8.058;2023-08-06T07:37:58;13.60;99.90
13892;DHT22;7016;48.172;8.058;2023-08-06T07:40:24;13.60;99.90
13892;DHT22;7016;48.172;8.058;2023-08-06T07:42:50;13.50;99.90
13892;DHT22;7016;48.172;8.058;2023-08-06T07:45:16;13.50;99.90
13892;DHT22;7016;48.172;8.058;2023-08-06T07:47:41;13.50;99.90
13892;DHT22;7016;48.172;8.058;2023-08-06T07:50:08;13.40;99.90
13892;DHT22;7016;48.172;8.058;2023-08-06T07:52:35;13.50;99.90
13892;DHT22;7016;48.172;8.058;2023-08-06T07:55:01;13.40;99.90
13892;DHT22;7016;48.172;8.058;2023-08-06T07:57:30;13.50;99.90
13892;DHT22;7016;48.172;8.058;2023-08-06T07:59:56;13.60;99.90
13892;DHT22;7016;48.172;8.058;2023-08-06T08:02:22;13.50;99.90
13892;DHT22;7016;48.172;8.058;2023-08-06T08:04:48;13.50;99.90
13892;DHT22;7016;48.172;8.058;2023-08-06T08:07:14;13.60;99.90
13892;DHT22;7016;48.172;8.058;2023-08-06T08:09:39;13.60;99.90
13892;DHT22;7016;48.172;8.058;2023-08-06T08:12:05;13.60;99.90
13892;DHT22;7016;48.172;8.058;2023-08-06T08:14:31;13.60;99.90
13892;DHT22;7016;48.172;8.058;2023-08-06T08:17:02;13.60;99.90
13892;DHT22;7016;48.172;8.058;2023-08-06T08:19:28;13.50;99.90
13892;DHT22;7016;48.172;8.058;2023-08-06T08:21:54;13.40;99.90
13892;DHT22;7016;48.172;8.058;2023-08-06T08:24:20;13.40;99.90
13892;DHT22;7016;48.172;8.058;2023-08-06T08:26:52;13.50;99.90
13892;DHT22;7016;48.172;8.058;2023-08-06T08:29:22;13.60;99.90
13892;DHT22;7016;48.172;8.058;2023-08-06T08:31:48;13.50;99.90
13892;DHT22;7016;48.172;8.058;2023-08-06T08:34:17;13.50;99.90
13892;DHT22;7016;48.172;8.058;2023-08-06T08:36:47;13.60;99.90
13892;DHT22;7016;48.172;8.058;2023-08-06T08:39:15;13.50;99.90
13892;DHT22;7016;48.172;8.058;2023-08-06T08:41:42;13.60;99.90
13892;DHT22;7016;48.172;8.058;2023-08-06T08:44:10;13.60;99.90
13892;DHT22;7016;48.172;8.058;2023-08-06T08:46:38;13.60;99.90
13892;DHT22;7016;48.172;8.058;2023-08-06T08:49:04;13.60;99.90
13892;DHT22;7016;48.172;8.058;2023-08-06T08:51:30;13.60;99.90
13892;DHT22;7016;48.172;8.058;2023-08-06T08:53:57;13.70;99.90
13892;DHT22;7016;48.172;8.058;2023-08-06T08:56:23;13.50;99.90
13892;DHT22;7016;48.172;8.058;2023-08-06T08:58:49;13.50;99.90
13892;DHT22;7016;48.172;8.058;2023-08-06T09:01:16;13.60;99.90
13892;DHT22;7016;48.172;8.058;2023-08-06T09:03:43;13.60;99.90
13892;DHT22;7016;48.172;8.058;2023-08-06T09:06:10;13.70;99.90
13892;DHT22;7016;48.172;8.058;2023-08-06T09:08:41;13.70;99.90
13892;DHT22;7016;48.172;8.058;2023-08-06T09:11:09;13.90;99.90
13892;DHT22;7016;48.172;8.058;2023-08-06T09:13:37;13.90;99.90
13892;DHT22;7016;48.172;8.058;2023-08-06T09:16:03;14.00;99.90
13892;DHT22;7016;48.172;8.058;2023-08-06T09:18:31;13.90;99.90
13892;DHT22;7016;48.172;8.058;2023-08-06T09:20:57;13.80;99.90
13892;DHT22;7016;48.172;8.058;2023-08-06T09:23:31;13.80;99.90
13892;DHT22;7016;48.172;8.058;2023-08-06T09:25:57;13.80;99.90
13892;DHT22;7016;48.172;8.058;2023-08-06T09:28:23;13.70;99.90
13892;DHT22;7016;48.172;8.058;2023-08-06T09:30:50;13.70;99.90
13892;DHT22;7016;48.172;8.058;2023-08-06T09:33:18;13.70;99.90
13892;DHT22;7016;48.172;8.058;2023-08-06T09:35:46;13.80;99.90
13892;DHT22;7016;48.172;8.058;2023-08-06T09:38:13;13.80;99.90
13892;DHT22;7016;48.172;8.058;2023-08-06T09:40:40;13.80;99.90
13892;DHT22;7016;48.172;8.058;2023-08-06T09:43:07;13.90;99.90
13892;DHT22;7016;48.172;8.058;2023-08-06T09:45:37;13.90;99.90
13892;DHT22;7016;48.172;8.058;2023-08-06T09:48:08;13.90;99.90
13892;DHT22;7016;48.172;8.058;2023-08-06T09:50:35;13.70;99.90
13892;DHT22;7016;48.172;8.058;2023-08-06T09:53:05;13.70;99.90
13892;DHT22;7016;48.172;8.058;2023-08-06T09:55:32;13.70;99.90
13892;DHT22;7016;48.172;8.058;2023-08-06T09:57:59;13.70;99.90
13892;DHT22;7016;48.172;8.058;2023-08-06T10:00:25;13.80;99.90
13892;DHT22;7016;48.172;8.058;2023-08-06T10:02:53;13.80;99.90
13892;DHT22;7016;48.172;8.058;2023-08-06T10:05:22;13.80;99.90
13892;DHT22;7016;48.172;8.058;2023-08-06T10:07:49;13.70;99.90
13892;DHT22;7016;48.172;8.058;2023-08-06T10:10:16;13.80;99.90
13892;DHT22;7016;48.172;8.058;2023-08-06T10:12:48;13.70;99.90
13892;DHT22;7016;48.172;8.058;2023-08-06T10:15:17;13.70;99.90
13892;DHT22;7016;48.172;8.058;2023-08-06T10:17:47;13.70;99.90
13892;DHT22;7016;48.172;8.058;2023-08-06T10:20:14;13.70;99.90
13892;DHT22;7016;48.172;8.058;2023-08-06T10:22:44;13.80;99.90
13892;DHT22;7016;48.172;8.058;2023-08-06T10:25:11;13.80;99.90
13892;DHT22;7016;48.172;8.058;2023-08-06T10:27:54;13.90;99.90
13892;DHT22;7016;48.172;8.058;2023-08-06T10:30:27;13.80;99.90
13892;DHT22;7016;48.172;8.058;2023-08-06T10:32:55;13.90;99.90
13892;DHT22;7016;48.172;8.058;2023-08-06T10:35:55;13.80;99.90
13892;DHT22;7016;48.172;8.058;2023-08-06T10:38:29;13.90;99.90
13892;DHT22;7016;48.172;8.058;2023-08-06T10:41:03;13.90;99.90
13892;DHT22;7016;48.172;8.058;2023-08-06T10:43:33;13.90;99.90
13892;DHT22;7016;48.172;8.058;2023-08-06T10:46:03;14.00;99.90
13892;DHT22;7016;48.172;8.058;2023-08-06T10:48:40;13.90;99.90
13892;DHT22;7016;48.172;8.058;2023-08-06T10:51:11;13.90;99.90
13892;DHT22;7016;48.172;8.058;2023-08-06T10:53:38;13.90;99.90
13892;DHT22;7016;48.172;8.058;2023-08-06T10:58:40;14.00;99.90
13892;DHT22;7016;48.172;8.058;2023-08-06T11:01:06;14.20;99.90
13892;DHT22;7016;48.172;8.058;2023-08-06T11:03:33;14.20;99.90
13892;DHT22;7016;48.172;8.058;2023-08-06T11:05:59;14.30;99.90
13892;DHT22;7016;48.172;8.058;2023-08-06T11:08:26;14.30;99.90
13892;DHT22;7016;48.172;8.058;2023-08-06T11:10:51;14.40;99.90
13892;DHT22;7016;48.172;8.058;2023-08-06T11:13:17;14.40;99.90
13892;DHT22;7016;48.172;8.058;2023-08-06T11:15:46;14.40;99.90
13892;DHT22;7016;48.172;8.058;2023-08-06T11:18:11;14.40;99.90
13892;DHT22;7016;48.172;8.058;2023-08-06T11:20:38;14.30;99.90
13892;DHT22;7016;48.172;8.058;2023-08-06T11:23:04;14.40;99.90
13892;DHT22;7016;48.172;8.058;2023-08-06T11:25:30;14.30;99.90
13892;DHT22;7016;48.172;8.058;2023-08-06T11:27:56;14.40;99.90
13892;DHT22;7016;48.172;8.058;2023-08-06T11:30:22;14.30;99.90
13892;DHT22;7016;48.172;8.058;2023-08-06T11:32:48;14.40;99.90
13892;DHT22;7016;48.172;8.058;2023-08-06T11:35:15;14.50;99.90
13892;DHT22;7016;48.172;8.058;2023-08-06T11:37:45;14.50;99.90
13892;DHT22;7016;48.172;8.058;2023-08-06T11:40:11;14.50;99.90
13892;DHT22;7016;48.172;8.058;2023-08-06T11:42:38;14.40;99.90
13892;DHT22;7016;48.172;8.058;2023-08-06T11:45:04;14.30;99.90
13892;DHT22;7016;48.172;8.058;2023-08-06T11:47:30;14.30;99.90
13892;DHT22;7016;48.172;8.058;2023-08-06T11:49:56;14.20;99.90
13892;DHT22;7016;48.172;8.058;2023-08-06T11:52:23;14.30;99.90
13892;DHT22;7016;48.172;8.058;2023-08-06T11:55:07;14.30;99.90
13892;DHT22;7016;48.172;8.058;2023-08-06T11:57:37;14.40;99.90
13892;DHT22;7016;48.172;8.058;2023-08-06T12:02:32;14.50;99.90
13892;DHT22;7016;48.172;8.058;2023-08-06T12:05:03;14.50;99.90
13892;DHT22;7016;48.172;8.058;2023-08-06T12:07:33;14.60;99.90
13892;DHT22;7016;48.172;8.058;2023-08-06T12:10:01;14.60;99.90
13892;DHT22;7016;48.172;8.058;2023-08-06T12:12:28;14.60;99.90
13892;DHT22;7016;48.172;8.058;2023-08-06T12:14:54;14.50;99.90
13892;DHT22;7016;48.172;8.058;2023-08-06T12:17:21;14.60;99.90
13892;DHT22;7016;48.172;8.058;2023-08-06T12:19:46;14.60;99.90
13892;DHT22;7016;48.172;8.058;2023-08-06T12:22:13;14.50;99.90
13892;DHT22;7016;48.172;8.058;2023-08-06T12:24:41;14.60;99.90
13892;DHT22;7016;48.172;8.058;2023-08-06T12:27:25;14.60;99.90
13892;DHT22;7016;48.172;8.058;2023-08-06T12:29:57;14.80;99.90
13892;DHT22;7016;48.172;8.058;2023-08-06T12:32:23;14.90;99.90
13892;DHT22;7016;48.172;8.058;2023-08-06T12:34:48;15.00;99.90
13892;DHT22;7016;48.172;8.058;2023-08-06T12:37:14;15.00;99.90
13892;DHT22;7016;48.172;8.058;2023-08-06T12:39:40;15.10;99.90
13892;DHT22;7016;48.172;8.058;2023-08-06T12:42:06;15.00;99.90
13892;DHT22;7016;48.172;8.058;2023-08-06T12:44:32;15.00;99.90
13892;DHT22;7016;48.172;8.058;2023-08-06T12:46:58;15.00;99.90
13892;DHT22;7016;48.172;8.058;2023-08-06T12:49:25;15.00;99.90
13892;DHT22;7016;48.172;8.058;2023-08-06T12:51:52;14.80;99.90
13892;DHT22;7016;48.172;8.058;2023-08-06T12:54:18;14.80;99.90
13892;DHT22;7016;48.172;8.058;2023-08-06T12:56:46;14.70;99.90
13892;DHT22;7016;48.172;8.058;2023-08-06T12:59:13;14.60;99.90
13892;DHT22;7016;48.172;8.058;2023-08-06T13:01:39;14.30;99.90
13892;DHT22;7016;48.172;8.058;2023-08-06T13:04:05;14.40;99.90
13892;DHT22;7016;48.172;8.058;2023-08-06T13:06:31;14.40;99.90
13892;DHT22;7016;48.172;8.058;2023-08-06T13:09:01;14.50;99.90
13892;DHT22;7016;48.172;8.058;2023-08-06T13:11:27;14.60;99.90
13892;DHT22;7016;48.172;8.058;2023-08-06T13:13:53;14.60;99.90
13892;DHT22;7016;48.172;8.058;2023-08-06T13:16:19;14.70;99.90
13892;DHT22;7016;48.172;8.058;2023-08-06T13:18:44;14.80;99.90
13892;DHT22;7016;48.172;8.058;2023-08-06T13:21:10;15.00;99.90
13892;DHT22;7016;48.172;8.058;2023-08-06T13:23:36;15.00;99.90
13892;DHT22;7016;48.172;8.058;2023-08-06T13:26:01;15.10;99.90
13892;DHT22;7016;48.172;8.058;2023-08-06T13:28:27;15.20;99.90
13892;DHT22;7016;48.172;8.058;2023-08-06T13:30:53;15.20;99.90
13892;DHT22;7016;48.172;8.058;2023-08-06T13:33:18;15.00;99.90
13892;DHT22;7016;48.172;8.058;2023-08-06T13:35:44;14.90;99.90
13892;DHT22;7016;48.172;8.058;2023-08-06T13:38:10;14.80;99.90
13892;DHT22;7016;48.172;8.058;2023-08-06T13:40:36;14.90;99.90
13892;DHT22;7016;48.172;8.058;2023-08-06T13:43:02;14.80;99.90
13892;DHT22;7016;48.172;8.058;2023-08-06T13:45:27;14.80;99.90
13892;DHT22;7016;48.172;8.058;2023-08-06T13:47:55;14.80;99.90
13892;DHT22;7016;48.172;8.058;2023-08-06T13:50:21;14.80;99.90
13892;DHT22;7016;48.172;8.058;2023-08-06T13:52:47;15.00;99.90
13892;DHT22;7016;48.172;8.058;2023-08-06T13:55:13;15.10;99.90
13892;DHT22;7016;48.172;8.058;2023-08-06T13:57:39;15.10;99.90
13892;DHT22;7016;48.172;8.058;2023-08-06T14:00:05;15.20;99.90
13892;DHT22;7016;48.172;8.058;2023-08-06T14:02:31;15.20;99.90
13892;DHT22;7016;48.172;8.058;2023-08-06T14:04:56;15.30;99.90
13892;DHT22;7016;48.172;8.058;2023-08-06T14:07:22;15.40;99.90
13892;DHT22;7016;48.172;8.058;2023-08-06T14:09:48;15.30;99.90
13892;DHT22;7016;48.172;8.058;2023-08-06T14:12:14;15.40;99.90
13892;DHT22;7016;48.172;8.058;2023-08-06T14:14:40;15.40;99.90
13892;DHT22;7016;48.172;8.058;2023-08-06T14:17:06;15.50;99.90
13892;DHT22;7016;48.172;8.058;2023-08-06T14:19:31;15.50;99.90
13892;DHT22;7016;48.172;8.058;2023-08-06T14:21:57;15.40;99.90
13892;DHT22;7016;48.172;8.058;2023-08-06T14:24:23;15.40;99.90
13892;DHT22;7016;48.172;8.058;2023-08-06T14:26:49;15.30;99.90
13892;DHT22;7016;48.172;8.058;2023-08-06T14:29:14;15.30;99.90
13892;DHT22;7016;48.172;8.058;2023-08-06T14:31:40;15.20;99.90
13892;DHT22;7016;48.172;8.058;2023-08-06T14:34:06;15.20;99.90
13892;DHT22;7016;48.172;8.058;2023-08-06T14:36:32;15.10;99.90
13892;DHT22;7016;48.172;8.058;2023-08-06T14:38:59;15.10;99.90
13892;DHT22;7016;48.172;8.058;2023-08-06T14:41:25;15.20;99.90
13892;DHT22;7016;48.172;8.058;2023-08-06T14:43:51;15.20;99.90
13892;DHT22;7016;48.172;8.058;2023-08-06T14:46:17;15.30;99.90
13892;DHT22;7016;48.172;8.058;2023-08-06T14:48:42;15.40;99.90
13892;DHT22;7016;48.172;8.058;2023-08-06T14:51:08;15.40;99.90
13892;DHT22;7016;48.172;8.058;2023-08-06T14:53:34;15.40;99.90
13892;DHT22;7016;48.172;8.058;2023-08-06T14:56:00;15.50;99.90
13892;DHT22;7016;48.172;8.058;2023-08-06T14:58:26;15.50;99.90
13892;DHT22;7016;48.172;8.058;2023-08-06T15:00:52;15.60;99.90
13892;DHT22;7016;48.172;8.058;2023-08-06T15:03:18;15.60;99.90
13892;DHT22;7016;48.172;8.058;2023-08-06T15:05:46;15.60;99.90
13892;DHT22;7016;48.172;8.058;2023-08-06T15:08:12;15.60;99.90
13892;DHT22;7016;48.172;8.058;2023-08-06T15:10:38;15.60;99.90
13892;DHT22;7016;48.172;8.058;2023-08-06T15:13:03;15.50;99.90
13892;DHT22;7016;48.172;8.058;2023-08-06T15:15:29;15.60;99.90
13892;DHT22;7016;48.172;8.058;2023-08-06T15:17:55;15.60;99.90
13892;DHT22;7016;48.172;8.058;2023-08-06T15:20:22;15.60;99.90
13892;DHT22;7016;48.172;8.058;2023-08-06T15:22:47;15.60;99.90
13892;DHT22;7016;48.172;8.058;2023-08-06T15:25:13;15.60;99.90
13892;DHT22;7016;48.172;8.058;2023-08-06T15:27:39;15.50;99.90
13892;DHT22;7016;48.172;8.058;2023-08-06T15:30:06;15.40;99.90
13892;DHT22;7016;48.172;8.058;2023-08-06T15:32:31;15.30;99.90
13892;DHT22;7016;48.172;8.058;2023-08-06T15:34:57;15.30;99.90
13892;DHT22;7016;48.172;8.058;2023-08-06T15:37:23;15.30;99.90
13892;DHT22;7016;48.172;8.058;2023-08-06T15:39:49;15.10;99.90
13892;DHT22;7016;48.172;8.058;2023-08-06T15:42:14;15.10;99.90
13892;DHT22;7016;48.172;8.058;2023-08-06T15:44:41;15.10;99.90
13892;DHT22;7016;48.172;8.058;2023-08-06T15:47:06;15.20;99.90
13892;DHT22;7016;48.172;8.058;2023-08-06T15:49:32;15.10;99.90
13892;DHT22;7016;48.172;8.058;2023-08-06T15:51:58;15.00;99.90
13892;DHT22;7016;48.172;8.058;2023-08-06T15:54:23;14.90;99.90